Date,TemperatureHighF,TemperatureAvgF,TemperatureLowF,DewpointHighF,DewpointAvgF,DewpointLowF,HumidityHigh,HumidityAvg,HumidityLow,PressureMaxIn,PressureMinIn,WindSpeedMaxMPH,WindSpeedAvgMPH,GustSpeedMaxMPH,PrecipitationSumIn
2013-1-30,77,75,72,69,68,66,87,78,71,30.12,30.00,19,11,29,0.00
2013-1-31,74,64,58,69,54,40,93,71,47,30.21,30.01,9,5,17,0.00
2013-2-1,70,62,52,57,49,39,71,61,52,30.30,30.19,14,6,23,0.00
2013-2-2,73,65,56,54,49,36,72,57,46,30.29,30.15,8,4,12,0.00
2013-2-3,71,64,57,55,49,40,81,60,36,30.20,30.11,13,4,20,0.00
2013-2-4,73,63,51,57,48,38,74,59,37,30.17,30.06,9,4,14,0.00
2013-2-5,76,68,58,64,58,51,80,70,51,30.12,30.03,8,4,13,0.00
2013-2-6,79,71,63,67,63,59,91,77,62,30.14,30.05,11,4,16,0.00
2013-2-7,78,74,71,69,65,62,79,75,69,30.11,29.96,11,7,18,0.00
2013-2-8,81,74,69,69,66,60,90,78,49,30.06,29.94,9,5,17,0.00
2013-2-9,78,72,66,69,64,61,91,77,60,30.20,30.05,10,4,16,0.00
2013-2-10,73,71,68,65,63,61,86,74,68,30.29,30.18,14,11,22,0.01
2013-2-11,76,73,71,66,64,62,79,73,66,30.25,30.14,16,11,20,0.01
2013-2-12,79,74,69,71,68,64,87,80,72,30.15,30.00,16,9,28,0.00
2013-2-13,78,75,70,73,70,67,93,85,77,30.04,29.91,16,8,29,0.00
2013-2-14,76,69,63,71,67,61,96,91,84,30.03,29.89,12,4,23,1.87
2013-2-15,73,67,64,67,64,62,95,91,79,30.05,29.97,15,3,27,0.89
2013-2-16,71,64,55,63,56,42,95,75,47,30.11,29.90,14,6,29,0.03
2013-2-17,56,51,44,42,30,19,65,46,29,30.33,30.11,14,8,27,0.00
2013-2-18,68,59,47,58,46,32,72,61,53,30.36,30.24,15,8,23,0.00
2013-2-19,76,71,66,66,61,54,85,70,59,30.24,30.11,17,10,24,0.00
2013-2-20,78,70,64,68,65,60,94,83,67,30.14,30.04,10,4,15,0.00
2013-2-21,79,75,72,69,67,65,84,78,69,30.13,30.03,12,6,16,0.00
2013-2-22,79,76,74,73,70,67,87,82,77,30.13,30.04,17,12,24,0.00
2013-2-23,79,75,70,73,70,68,93,84,76,30.08,29.94,17,12,27,0.50
2013-2-24,84,76,71,75,72,68,96,87,64,30.03,29.92,12,6,20,0.50
2013-2-25,81,76,71,75,71,68,91,86,77,29.95,29.85,15,7,23,0.00
2013-2-26,80,77,75,74,72,70,91,83,73,29.91,29.82,17,10,31,0.00
2013-2-27,76,69,62,73,64,59,94,83,60,29.99,29.89,9,4,18,0.99
2013-2-28,71,64,58,62,53,46,94,70,43,30.03,29.93,8,4,16,0.73
2013-3-1,64,61,58,56,49,45,78,65,54,30.01,29.93,8,4,15,0.00
2013-3-2,65,57,52,48,41,34,71,55,41,30.06,29.98,15,7,30,0.00
2013-3-3,60,54,49,43,40,37,72,60,47,30.17,30.00,12,6,30,0.00
2013-3-4,62,53,43,47,38,30,77,58,32,30.24,30.15,12,6,22,0.00
2013-3-5,72,64,53,58,53,43,78,68,58,30.21,30.11,13,5,20,0.00
2013-3-6,75,65,54,62,50,33,91,64,28,30.12,29.97,16,7,26,0.00
2013-3-7,68,58,48,56,46,36,85,64,48,30.21,30.10,10,5,23,0.00
2013-3-8,70,62,54,54,51,46,86,68,48,30.24,30.14,11,4,15,0.00
2013-3-9,74,65,57,58,54,49,83,68,57,30.23,30.13,7,3,15,0.00
2013-3-10,73,70,67,62,58,54,76,66,58,30.19,30.11,11,6,18,0.00
2013-3-11,76,71,69,63,61,59,75,70,60,30.15,30.03,14,11,20,0.00
2013-3-14,65,61,55,50,48,41,76,61,48,30.23,30.17,18,9,29,0.00
2013-3-15,67,61,53,56,50,44,77,68,59,30.28,30.19,13,6,19,0.00
2013-3-16,73,66,57,57,54,51,84,67,48,30.23,30.12,12,5,20,0.00
2013-3-17,74,68,61,62,58,55,80,71,59,30.18,30.07,13,6,18,0.00
2013-3-18,77,72,67,69,66,62,93,80,73,30.11,29.99,16,9,24,0.41
2013-3-19,77,72,69,69,67,64,93,86,71,30.04,29.88,13,3,26,0.41
2013-3-20,78,72,66,71,66,56,95,83,52,30.00,29.83,10,3,23,0.01
2013-3-21,68,65,61,61,55,48,91,70,49,29.97,29.85,15,6,22,0.01
2013-3-22,74,69,60,70,59,52,89,72,61,30.04,29.93,12,6,20,0.12
2013-3-23,79,76,72,74,72,70,92,88,83,30.02,29.83,17,7,29,0.12
2013-3-24,88,78,71,73,71,65,95,80,55,29.92,29.70,19,9,34,0.56
2013-3-25,79,73,66,72,59,36,95,67,30,30.01,29.77,10,4,17,0.56
2013-3-26,67,60,53,42,36,30,58,42,26,30.23,30.01,13,8,25,0.00
2013-3-27,63,56,47,48,41,31,69,58,43,30.28,30.20,13,6,22,0.00
2013-3-28,68,61,50,51,45,35,77,57,29,30.30,30.21,13,5,19,0.00
2013-3-29,74,66,56,55,50,43,72,58,44,30.32,30.24,11,4,18,0.00
2013-3-30,73,69,66,57,53,50,66,58,46,30.30,30.20,10,5,15,0.00
2013-3-31,77,72,64,67,61,-100,82,72,64,30.23,30.07,13,10,21,0.00
2013-4-1,85,76,72,72,67,61,88,75,45,30.09,29.97,17,8,27,0.00
2013-4-2,81,73,66,69,66,64,95,79,62,30.10,30.02,7,3,12,0.00
2013-4-3,78,76,73,70,69,66,85,79,74,30.09,30.02,13,8,18,0.00
2013-4-4,80,75,68,74,70,66,94,86,78,30.08,29.93,15,10,26,0.56
2013-4-5,74,69,66,71,66,64,93,89,81,30.02,29.85,18,6,29,0.90
2013-4-6,77,69,59,66,62,56,92,79,62,30.11,29.93,14,5,20,0.04
2013-4-7,77,73,71,65,63,61,77,70,61,30.17,30.06,9,5,18,0.00
2013-4-8,79,75,72,66,63,58,77,67,61,30.16,30.07,9,4,11,0.00
2013-4-9,78,75,73,69,67,66,82,77,74,30.18,30.08,12,7,18,0.00
2013-4-10,80,76,74,74,70,67,88,82,77,30.13,30.03,16,9,22,0.00
2013-4-11,79,77,75,73,72,70,89,84,80,30.05,29.93,17,14,25,0.00
2013-4-12,82,78,76,77,74,73,90,87,82,29.97,29.88,19,12,30,0.00
2013-4-13,83,77,73,75,72,68,94,85,73,29.99,29.90,13,4,24,0.18
2013-4-14,83,79,74,77,74,68,94,86,78,30.00,29.93,12,7,18,0.18
2013-4-15,84,77,70,77,72,68,94,87,75,30.08,29.96,12,4,21,0.82
2013-4-16,83,78,72,76,73,69,93,86,78,30.15,30.06,7,3,14,0.85
2013-4-17,83,78,74,71,69,66,84,74,62,30.14,30.05,5,2,14,0.03
2013-4-18,82,78,76,74,71,67,85,78,74,30.09,30.01,16,9,21,0.00
2013-4-19,83,80,77,75,73,71,89,80,71,30.08,29.99,18,13,27,0.02
2013-4-20,84,78,73,77,73,69,91,86,76,30.11,30.00,15,6,24,0.02
2013-4-21,81,77,72,74,72,70,93,85,73,30.13,30.01,14,6,20,0.01
2013-4-22,81,75,70,72,70,67,93,84,69,30.07,29.96,19,6,27,0.42
2013-4-23,83,77,72,69,67,61,88,71,61,30.11,29.98,14,7,25,0.01
2013-4-24,81,77,73,67,64,61,74,66,58,30.16,30.05,9,4,15,0.00
2013-4-25,82,77,73,66,63,61,73,64,53,30.22,30.10,10,4,15,0.00
2013-4-26,81,76,72,68,65,62,76,68,61,30.25,30.14,8,3,13,0.00
2013-4-27,82,77,74,68,65,62,76,68,58,30.23,30.11,9,4,16,0.00
2013-4-28,79,76,73,66,64,-100,76,68,59,30.15,30.03,13,9,19,0.00
2013-4-29,81,77,75,72,68,64,84,75,65,30.06,29.96,14,10,21,0.00
2013-4-30,81,76,67,72,70,65,95,83,75,30.03,29.95,13,5,23,3.09
2013-5-1,82,76,70,74,70,67,93,84,76,30.03,29.96,8,4,16,0.27
2013-5-2,77,74,69,73,70,67,95,90,82,29.97,29.82,18,9,29,1.38
2013-5-3,86,74,68,72,69,67,97,85,55,29.84,29.70,16,5,24,4.36
2013-5-4,86,76,68,70,68,66,95,78,54,29.82,29.71,9,4,17,0.12
2013-5-5,82,74,68,68,63,50,94,70,37,29.95,29.78,9,4,17,0.01
2013-5-6,83,72,62,65,60,52,87,67,50,30.04,29.95,9,4,15,0.00
2013-5-7,83,72,62,67,60,55,78,67,45,30.08,30.00,11,5,18,0.00
2013-5-8,80,73,62,67,62,58,90,71,51,30.16,30.06,7,3,12,0.00
2013-5-9,83,77,68,73,68,61,85,75,66,30.17,30.09,9,4,14,0.00
2013-5-10,83,79,76,75,70,-100,87,80,71,30.16,30.05,12,7,17,0.00
2013-5-11,83,79,73,76,74,69,92,84,73,30.10,30.01,17,7,26,0.02
2013-5-12,83,76,71,76,71,-100,94,86,71,30.09,29.96,16,6,27,1.03
2013-5-13,87,77,72,72,69,66,95,78,53,30.11,30.02,18,5,22,1.02
2013-5-14,81,77,74,67,62,56,71,60,49,30.21,30.09,11,4,18,0.01
2013-5-15,82,76,73,67,62,58,73,63,49,30.22,30.12,11,5,17,0.00
2013-5-16,80,71,73,67,41,-100,75,64,57,30.15,30.07,11,6,18,0.00
2013-5-17,84,78,76,74,65,-100,85,76,67,30.12,30.04,10,6,15,0.00
2013-5-18,82,79,75,75,72,70,87,80,73,30.14,30.06,11,6,16,0.00
2013-5-19,83,79,77,72,70,69,81,75,66,30.13,30.03,9,6,13,0.00
2013-5-20,79,76,69,73,72,67,95,85,80,30.11,30.01,13,6,26,4.82
2013-5-21,80,75,69,74,71,67,95,87,78,30.10,29.96,17,8,31,5.01
2013-5-22,81,77,74,74,72,68,88,84,72,30.01,29.93,16,7,24,0.05
2013-5-23,92,81,74,76,73,66,95,78,44,30.03,29.93,9,5,15,0.05
2013-5-24,89,82,75,76,74,71,92,79,62,30.08,29.97,8,3,14,0.24
2013-5-25,85,80,76,75,69,66,87,70,54,30.19,30.07,7,4,14,0.02
2013-5-26,86,79,75,70,67,61,76,65,55,30.21,30.14,10,3,14,0.00
2013-5-27,85,79,76,74,70,64,88,75,67,30.18,30.10,16,6,20,0.01
2013-5-28,81,78,73,74,72,70,92,84,79,30.14,30.07,19,12,31,0.03
2013-5-29,80,77,72,74,72,69,95,86,77,30.11,30.04,21,13,30,0.53
2013-5-30,80,78,73,74,72,68,94,84,76,30.11,30.03,25,16,34,0.03
2013-5-31,82,78,74,76,73,71,96,87,79,30.09,30.03,20,12,29,0.69
2013-6-1,82,78,76,76,74,73,93,88,81,30.06,29.99,14,6,19,0.50
2013-6-2,85,79,74,78,73,-100,93,86,74,30.03,29.95,14,3,24,0.11
2013-6-3,85,79,75,77,74,72,92,84,74,30.06,29.94,12,3,25,0.15
2013-6-4,85,79,75,77,74,72,93,86,73,30.08,29.98,9,2,11,0.39
2013-6-5,82,80,80,77,76,74,90,86,82,30.04,29.92,11,6,16,0.03
2013-6-6,84,79,73,79,76,70,96,89,82,29.94,29.80,27,12,43,0.13
2013-6-7,89,78,74,77,73,72,95,87,64,30.01,29.86,13,5,23,0.67
2013-6-8,83,78,74,78,75,72,96,91,81,30.13,30.00,8,3,14,1.98
2013-6-9,84,81,79,77,75,73,91,83,76,30.14,30.07,12,9,18,0.04
2013-6-10,85,82,80,78,76,75,88,83,76,30.12,30.04,12,7,17,0.04
2013-6-11,87,82,80,78,76,74,90,84,69,30.11,30.04,11,6,23,0.00
2013-6-12,86,81,79,79,76,74,90,86,77,30.10,30.05,8,2,12,0.00
2013-6-13,87,81,76,78,75,70,96,83,68,30.07,29.96,10,3,19,0.00
2013-6-14,93,81,76,78,73,70,93,78,51,29.99,29.90,14,5,20,0.01
2013-6-15,90,82,76,78,75,71,93,80,64,30.08,29.95,6,3,10,0.01
2013-6-16,87,83,79,78,76,73,88,80,71,30.12,30.05,9,4,13,0.00
2013-6-17,88,84,81,79,77,75,86,80,68,30.11,30.04,11,6,16,0.00
2013-6-18,87,84,80,78,76,75,86,79,72,30.09,30.01,11,7,18,0.00
2013-6-19,87,83,79,78,76,74,91,81,72,30.08,30.01,12,6,19,0.00
2013-6-20,87,83,77,77,75,69,85,78,69,30.11,30.05,10,5,21,0.00
2013-6-22,89,85,82,76,75,73,81,72,63,30.14,30.07,10,5,15,0.00
2013-6-23,85,82,77,78,75,69,85,78,71,30.15,30.08,21,9,30,0.03
2013-6-24,85,83,81,77,74,72,80,77,71,30.19,30.11,13,8,19,0.03
2013-6-25,86,82,80,78,76,72,85,81,73,30.16,30.07,15,8,20,0.07
2013-6-26,86,82,79,77,76,74,89,80,71,30.11,30.04,13,8,19,0.09
2013-6-27,86,82,78,78,75,70,86,81,69,30.09,29.98,9,4,15,0.03
2013-6-28,86,82,73,78,75,71,96,82,71,30.02,29.89,12,5,19,1.55
2013-6-29,87,80,74,78,75,70,95,84,72,29.95,29.84,15,5,25,1.50
2013-6-30,87,80,75,78,75,71,93,83,65,29.98,29.87,18,7,31,0.06
2013-7-1,85,82,78,78,76,73,90,83,74,30.06,29.94,18,9,37,0.06
2013-7-2,86,82,79,79,77,74,88,84,77,30.14,30.01,14,8,20,0.09
2013-7-3,84,80,75,78,76,72,91,85,79,30.16,30.08,19,10,35,0.37
2013-7-4,84,82,78,78,76,73,89,83,78,30.18,30.10,15,11,27,0.27
2013-7-5,84,82,77,77,76,72,90,82,76,30.18,30.08,17,11,26,0.02
2013-7-6,85,82,80,77,75,74,83,79,75,30.15,30.06,13,10,21,0.01
2013-7-7,86,83,80,77,75,74,86,79,71,30.13,30.06,13,8,18,0.01
2013-7-8,89,83,81,76,75,72,83,77,62,30.18,30.11,9,6,13,0.00
2013-7-9,86,81,76,77,74,70,88,78,68,30.17,30.07,9,4,15,0.35
2013-7-10,84,77,72,76,70,-100,93,83,74,30.11,30.03,11,5,17,0.54
2013-7-11,87,82,79,78,75,71,87,80,71,30.08,29.98,10,5,16,0.01
2013-7-12,89,80,73,77,74,70,94,83,64,30.00,29.93,12,2,20,0.90
2013-7-13,84,77,73,77,73,71,95,89,77,30.06,29.95,14,3,22,1.51
2013-7-14,86,79,73,77,74,71,94,84,69,30.12,30.01,13,6,22,0.52
2013-7-15,88,80,74,77,74,71,92,82,66,30.12,30.03,14,3,19,0.11
2013-7-16,82,77,73,75,73,70,95,87,72,30.18,30.09,27,10,39,0.57
2013-7-17,81,79,76,75,73,71,90,83,77,30.16,30.08,14,8,21,0.50
2013-7-18,83,77,73,76,73,69,94,87,76,30.16,30.09,16,5,23,0.49
2013-7-19,85,81,75,78,76,71,94,85,76,30.16,30.07,11,7,17,0.30
2013-7-20,85,81,78,79,75,-100,89,84,78,30.15,30.07,15,8,24,0.07
2013-7-21,87,81,76,79,76,71,93,85,77,30.19,30.08,9,4,16,0.28
2013-7-22,87,82,77,78,76,73,91,81,72,30.18,30.09,11,6,16,0.28
2013-7-23,88,83,78,79,76,74,90,81,66,30.14,29.99,12,6,21,0.00
2013-7-24,92,84,77,78,74,65,91,73,43,30.04,29.93,10,4,23,0.00
2013-7-25,92,84,77,76,74,72,90,75,56,30.03,29.94,7,4,16,0.00
2013-7-26,91,82,78,78,75,72,90,80,59,30.05,29.96,11,4,20,0.03
2013-7-27,88,80,77,79,75,73,91,85,72,30.03,29.96,14,3,22,0.02
2013-7-28,86,80,75,78,75,72,91,86,73,30.09,29.98,11,3,22,0.35
2013-7-29,88,82,78,79,76,74,91,83,71,30.16,30.06,11,4,19,0.01
2013-7-30,88,84,77,79,77,71,90,81,73,30.19,30.11,9,5,16,0.02
2013-7-31,87,84,82,78,76,74,85,78,71,30.15,30.03,11,7,17,0.01
2013-8-1,88,83,79,77,75,73,84,76,66,30.08,29.98,13,7,19,0.00
2013-8-2,89,80,76,77,74,67,89,81,65,30.08,29.95,11,4,20,0.26
2013-8-3,82,78,74,76,74,72,93,88,77,30.15,30.05,9,3,16,0.52
2013-8-4,89,80,71,79,75,70,97,84,71,30.15,30.01,20,3,39,0.53
2013-8-5,90,80,76,80,75,71,94,86,67,30.06,29.98,9,3,22,0.87
2013-8-6,88,82,76,79,76,73,93,83,71,30.01,29.92,7,2,11,0.34
2013-8-7,87,83,80,79,76,74,87,81,72,30.01,29.93,15,5,24,0.15
2013-8-8,87,84,82,78,77,74,84,79,68,30.05,29.96,13,9,20,0.05
2013-8-9,86,83,80,78,75,73,87,78,69,30.09,29.98,14,9,22,0.02
2013-8-10,87,84,81,78,77,75,85,80,74,30.15,30.07,11,8,16,0.01
2013-8-11,89,84,82,78,77,75,84,79,70,30.16,30.09,9,5,15,0.00
2013-8-12,92,85,81,78,76,73,83,75,61,30.14,30.04,7,3,11,0.00
2013-8-13,88,83,82,79,74,-100,84,77,69,30.07,29.98,12,6,16,0.00
2013-8-14,88,83,80,78,74,-100,86,76,68,30.06,29.96,11,6,20,0.00
2013-8-15,86,76,75,78,62,-100,93,79,73,30.09,29.99,17,6,23,0.08
2013-8-16,88,82,79,80,74,-100,88,81,72,30.09,30.01,8,4,14,0.01
2013-8-17,87,85,83,80,78,77,87,82,75,30.11,30.03,9,7,14,0.00
2013-8-18,87,83,77,80,75,-100,90,80,74,30.11,30.02,24,8,29,0.07
2013-8-19,87,80,82,79,66,-100,87,80,73,30.10,29.99,12,7,17,0.07
2013-8-20,88,83,81,79,75,-100,87,79,73,30.09,30.01,11,6,16,0.09
2013-8-21,85,83,79,79,78,74,88,84,79,30.11,30.03,16,8,23,0.11
2013-8-22,87,84,82,79,78,74,86,81,75,30.09,29.99,11,7,15,0.04
2013-8-23,88,84,82,79,77,74,86,79,72,30.05,29.97,11,5,19,0.04
2013-8-24,89,84,82,78,77,74,85,77,69,30.13,30.01,8,5,14,0.00
2013-8-25,88,82,78,78,74,-100,88,78,69,30.18,30.06,7,3,14,0.00
2013-8-26,90,82,76,78,75,70,89,80,66,30.15,30.04,17,3,28,0.10
2013-8-27,83,78,75,75,74,71,91,85,73,30.08,30.01,8,2,13,0.30
2013-8-28,87,83,75,76,74,70,88,76,65,30.06,29.98,14,4,24,0.13
2013-8-29,89,82,75,78,75,71,90,81,69,30.05,29.96,9,4,13,0.12
2013-8-30,88,83,78,77,76,73,90,79,62,30.03,29.93,12,5,17,0.00
2013-8-31,87,82,75,79,75,70,88,80,73,30.01,29.94,12,4,22,0.00
2013-9-1,88,81,77,79,74,-100,91,81,73,30.03,29.96,9,2,14,0.00
2013-9-2,88,80,72,79,75,70,96,86,71,30.06,29.97,15,2,22,1.17
2013-9-3,91,82,74,78,75,72,93,80,66,30.05,29.96,7,3,11,0.01
2013-9-4,89,84,82,80,78,75,86,80,74,30.09,29.98,7,3,13,0.00
2013-9-5,89,85,82,79,78,76,86,80,71,30.10,30.02,10,4,13,0.00
2013-9-6,92,85,83,80,78,76,86,78,64,30.07,29.96,7,3,10,0.00
2013-9-7,89,80,73,79,75,70,93,85,68,30.01,29.93,13,2,24,0.53
2013-9-8,88,80,75,78,73,-100,94,81,69,29.97,29.88,8,2,12,0.01
2013-9-9,90,82,76,78,75,70,88,79,67,30.03,29.92,13,2,17,0.23
2013-9-10,90,83,75,78,76,72,91,79,65,30.07,29.98,16,4,27,0.01
2013-9-11,84,81,76,77,75,73,91,83,74,30.08,29.99,14,5,26,0.06
2013-9-12,84,80,76,77,75,73,93,85,78,30.04,29.91,8,3,14,1.64
2013-9-13,89,82,75,79,76,72,95,82,70,29.95,29.83,7,3,11,2.09
2013-9-14,89,84,78,78,76,74,91,78,63,29.99,29.84,10,4,14,0.01
2013-9-15,86,81,78,79,74,-100,94,83,76,30.08,29.93,12,4,22,0.30
2013-9-16,85,81,79,78,76,74,90,86,78,30.07,29.98,16,6,25,0.36
2013-9-17,81,78,73,77,75,71,97,90,83,30.06,29.94,16,4,24,1.11
2013-9-18,81,78,74,76,74,72,94,88,83,30.03,29.94,14,3,19,3.95
2013-9-19,91,82,74,79,75,72,95,81,65,30.03,29.95,6,2,12,1.01
2013-9-20,86,82,77,75,71,68,86,71,62,30.03,29.93,11,3,16,0.06
2013-9-21,87,82,78,75,72,70,81,73,66,29.95,29.81,7,2,12,0.06
2013-9-22,87,81,77,78,74,-100,90,80,72,29.89,29.79,12,5,21,0.00
2013-9-23,86,81,77,80,76,73,94,87,78,30.00,29.88,11,2,20,0.20
2013-9-24,89,80,75,82,76,71,95,87,73,30.02,29.89,13,3,22,1.65
2013-9-25,88,80,75,78,74,71,92,81,60,29.93,29.81,11,4,21,0.07
2013-9-26,89,80,76,79,76,73,94,87,69,29.88,29.80,13,4,34,0.28
2013-9-27,86,80,74,76,74,70,95,83,62,29.95,29.84,15,4,21,0.03
2013-9-28,90,81,75,77,74,69,92,77,63,29.98,29.90,8,2,19,0.37
2013-9-29,90,82,79,74,69,-100,75,67,57,29.99,29.91,5,1,10,0.34
2013-9-30,89,82,79,75,72,70,76,70,59,30.03,29.93,8,4,13,0.00
2013-10-1,81,81,81,73,73,72,78,76,74,30.06,30.02,8,4,14,0.00
2013-10-2,90,84,80,76,74,72,81,72,61,30.07,29.99,9,2,14,0.00
2013-10-3,87,82,79,75,73,71,83,75,64,30.09,29.98,8,3,13,0.00
2013-10-4,91,83,80,75,72,68,79,71,59,30.09,30.01,7,3,11,0.00
2013-10-5,90,82,75,76,73,70,89,73,61,30.06,29.96,5,1,9,0.00
2013-10-6,87,82,80,77,74,71,84,76,66,29.99,29.90,8,5,13,0.13
2013-10-7,87,79,73,77,73,71,94,82,61,29.93,29.83,13,5,34,0.22
2013-10-8,91,81,76,78,74,71,96,82,60,29.95,29.87,8,4,15,0.19
2013-10-9,82,77,73,76,73,69,93,86,79,30.01,29.93,13,5,21,0.02
2013-10-10,84,79,72,75,72,69,93,80,67,30.03,29.97,13,5,19,0.09
2013-10-11,85,80,77,70,69,66,77,68,59,30.04,29.97,10,2,13,0.00
2013-10-12,88,80,72,71,69,66,86,69,57,30.05,29.98,7,2,11,0.00
2013-10-13,83,79,75,70,65,-100,84,66,52,30.08,30.00,13,5,21,0.00
2013-10-14,87,80,73,71,69,67,87,70,57,30.04,29.93,7,2,12,0.00
2013-10-15,84,78,72,74,71,69,91,79,69,29.98,29.90,5,2,10,0.02
2013-10-16,89,81,74,73,71,68,87,72,58,29.98,29.92,7,2,9,0.02
2013-10-17,86,81,75,74,72,69,87,73,63,30.00,29.92,6,2,10,0.00
2013-10-18,87,81,76,75,73,71,86,76,66,30.01,29.93,9,4,14,0.00
2013-10-19,86,82,79,75,74,72,85,76,65,29.99,29.91,11,7,17,0.00
2013-10-20,86,81,78,77,74,-100,89,81,74,29.99,29.90,7,4,14,0.00
2013-10-21,87,83,79,78,76,74,87,80,72,30.03,29.93,10,6,14,0.00
2013-10-22,86,83,80,78,76,73,87,81,74,30.00,29.85,13,7,22,0.00
2013-10-23,87,80,76,76,73,67,93,80,63,29.98,29.84,15,5,22,0.01
2013-10-24,80,76,73,69,66,63,79,69,62,30.11,29.96,14,6,23,0.01
2013-10-25,81,78,77,66,65,63,69,64,56,30.18,30.11,14,6,22,0.00
2013-10-26,84,78,73,67,64,61,71,61,53,30.18,30.08,8,3,15,0.00
2013-10-27,83,74,68,68,62,-100,78,69,55,30.12,30.05,12,3,16,0.00
2013-10-28,86,78,75,69,64,-100,73,64,50,30.17,30.07,6,2,11,0.00
2013-10-29,87,80,76,71,68,65,73,68,58,30.20,30.11,12,3,20,0.00
2013-10-30,85,80,77,71,69,67,77,69,59,30.22,30.11,12,5,18,0.00
2013-10-31,83,80,78,74,71,67,85,75,68,30.14,30.03,14,9,19,0.01
2013-11-1,85,81,79,76,74,72,84,78,71,30.04,29.91,12,8,22,0.01
2013-11-2,90,80,73,73,70,61,94,75,49,29.96,29.83,9,3,17,0.00
2013-11-3,79,73,68,66,62,-100,83,71,60,30.05,29.92,16,7,27,0.00
2013-11-4,83,77,71,69,65,59,91,69,56,30.10,30.04,12,6,21,0.36
2013-11-5,81,78,76,72,70,66,82,76,70,30.12,30.04,14,7,23,0.36
2013-11-6,86,79,76,72,70,68,81,74,62,30.10,30.03,10,4,19,0.00
2013-11-7,83,77,71,74,70,68,93,81,68,30.04,29.95,12,4,18,0.00
2013-11-8,84,76,72,74,71,67,94,84,67,30.06,29.96,17,7,26,0.55
2013-11-9,78,76,73,73,70,-100,94,83,79,30.14,30.04,11,4,20,0.62
2013-11-10,85,79,77,75,71,68,83,78,71,30.15,30.08,9,3,15,0.01
2013-11-11,83,79,76,73,70,65,81,74,67,30.14,30.08,6,2,13,0.00
2013-11-12,84,78,75,70,68,66,82,72,61,30.11,29.99,7,2,11,0.00
2013-11-13,76,72,70,68,64,57,90,74,63,30.24,30.02,22,10,37,0.11
2013-11-14,77,73,70,63,61,58,75,66,60,30.27,30.17,15,7,25,0.02
2013-11-15,79,76,74,70,67,62,77,73,67,30.18,30.06,14,10,23,0.00
2013-11-16,79,77,73,73,69,-100,89,78,72,30.13,30.05,16,8,24,0.08
2013-11-17,82,79,78,73,72,70,84,78,71,30.11,30.03,14,9,20,0.01
2013-11-18,82,78,74,74,72,71,90,81,73,30.06,29.95,8,3,13,0.00
2013-11-19,82,76,73,75,72,70,93,87,77,29.97,29.88,14,3,18,0.14
2013-11-20,82,76,69,75,71,68,95,86,76,30.09,29.95,7,3,12,0.07
2013-11-21,78,76,73,74,72,70,95,87,81,30.18,30.07,14,6,24,0.21
2013-11-22,83,78,76,73,71,68,84,78,68,30.19,30.10,10,4,19,0.05
2013-11-23,83,77,75,73,68,-100,84,76,70,30.11,30.01,7,2,13,0.00
2013-11-24,78,74,69,70,68,65,95,81,69,30.17,30.01,18,6,30,0.21
2013-11-25,74,73,71,69,65,62,84,78,71,30.23,30.08,18,9,27,0.02
2013-11-26,81,77,73,75,73,68,92,86,80,30.09,29.85,23,15,34,0.00
2013-11-27,78,71,57,75,65,50,96,82,60,30.14,29.81,13,7,23,0.38
2013-11-28,73,62,47,60,53,44,90,74,57,30.27,30.14,11,6,18,0.03
2013-11-29,76,72,60,64,61,56,87,68,57,30.29,30.22,8,4,20,0.00
2013-11-30,78,71,62,69,62,-100,92,77,67,30.24,30.13,9,4,17,0.01
2013-12-1,79,73,68,70,67,63,97,83,71,30.13,29.96,11,5,17,0.86
2013-12-2,71,67,63,68,64,61,97,89,72,29.97,29.85,12,4,18,0.59
2013-12-3,77,70,62,66,63,59,95,80,55,30.03,29.92,7,2,12,0.01
2013-12-4,81,74,67,69,67,64,90,77,66,30.12,30.01,10,4,18,0.00
2013-12-5,81,78,74,72,70,67,87,77,72,30.19,30.11,13,8,20,0.05
2013-12-6,81,78,76,72,70,67,84,76,68,30.22,30.12,17,11,23,0.05
2013-12-7,79,74,70,72,68,-100,94,84,73,30.25,30.17,11,4,19,0.48
2013-12-8,80,78,75,73,70,68,87,78,71,30.24,30.15,18,10,27,0.13
2013-12-9,81,78,77,72,70,69,82,77,67,30.23,30.15,15,12,21,0.00
2013-12-10,83,79,76,74,72,69,86,80,72,30.19,30.11,12,7,17,0.00
2013-12-11,87,78,71,73,71,69,94,81,60,30.23,30.15,5,2,8,0.00
2013-12-12,77,73,71,71,67,61,95,81,67,30.25,30.16,19,6,29,0.00
2013-12-13,79,73,70,68,64,59,82,72,64,30.23,30.13,17,6,25,0.00
2013-12-14,80,76,73,73,69,-100,90,81,76,30.14,30.02,21,13,28,0.10
2013-12-15,81,76,71,74,71,66,92,85,75,30.09,29.95,12,5,23,0.10
2013-12-16,72,68,64,66,61,58,89,80,73,30.17,30.06,9,5,17,0.00
2013-12-17,71,69,66,60,60,58,78,72,68,30.20,30.18,3,2,5,0.00
2013-12-18,73,66,60,60,58,56,91,76,58,30.27,30.17,11,5,21,0.00
2013-12-19,76,72,63,66,61,57,84,68,60,30.28,30.19,13,5,18,0.00
2013-12-20,78,76,74,70,68,63,80,74,66,30.22,30.14,13,10,19,0.00
2013-12-21,80,77,76,73,70,-100,85,80,76,30.18,30.09,17,14,24,0.00
2013-12-22,81,78,77,74,72,71,86,83,76,30.19,30.11,20,14,27,0.00
2013-12-23,81,78,74,75,72,70,89,83,77,30.21,30.14,15,11,23,0.00
2013-12-24,83,72,68,72,68,63,95,86,65,30.20,30.12,16,5,28,0.02
2013-12-25,77,73,70,68,66,63,91,79,70,30.21,30.13,8,4,18,0.19
2013-12-26,78,75,72,71,69,66,86,82,77,30.20,30.09,5,2,12,0.19
2013-12-27,83,77,73,73,70,68,90,80,69,30.22,30.12,8,2,15,0.10
2013-12-28,78,75,74,73,68,-100,93,82,78,30.21,30.06,22,12,29,0.10
2013-12-29,80,77,73,75,73,71,96,88,78,30.06,29.95,19,10,37,0.00
2013-12-30,76,72,69,72,69,65,96,91,82,30.17,30.01,10,3,19,0.06
2013-12-31,77,73,68,68,65,63,87,77,68,30.25,30.14,9,4,16,0.06
2014-1-1,79,76,73,73,70,66,88,83,75,30.23,30.07,16,10,22,0.00
2014-1-2,84,78,72,73,70,66,89,76,55,30.08,29.89,15,8,26,0.00